sensor_id;sensor_type;location;lat;lon;timestamp;temperature;humidity
20162;DHT22;51382;53.180;15.414;2022-09-02T00:13:13;10.30;99.90
20162;DHT22;51382;53.180;15.414;2022-09-02T00:28:21;9.60;99.90
20162;DHT22;51382;53.180;15.414;2022-09-02T00:43:40;9.10;99.90
20162;DHT22;51382;53.180;15.414;2022-09-02T00:58:53;9.10;99.90
20162;DHT22;51382;53.180;15.414;2022-09-02T01:14:00;8.70;99.90
20162;DHT22;51382;53.180;15.414;2022-09-02T01:29:14;7.90;99.90
20162;DHT22;51382;53.180;15.414;2022-09-02T01:44:25;8.50;99.90
20162;DHT22;51382;53.180;15.414;2022-09-02T01:59:36;9.00;99.90
20162;DHT22;51382;53.180;15.414;2022-09-02T02:14:47;9.20;99.90
20162;DHT22;51382;53.180;15.414;2022-09-02T02:29:59;9.10;99.90
20162;DHT22;51382;53.180;15.414;2022-09-02T02:45:10;9.00;99.90
20162;DHT22;51382;53.180;15.414;2022-09-02T03:00:23;8.80;99.90
20162;DHT22;51382;53.180;15.414;2022-09-02T03:15:37;8.50;99.90
20162;DHT22;51382;53.180;15.414;2022-09-02T03:30:45;8.00;99.90
20162;DHT22;51382;53.180;15.414;2022-09-02T03:45:52;7.60;99.90
20162;DHT22;51382;53.180;15.414;2022-09-02T04:01:03;7.50;99.90
20162;DHT22;51382;53.180;15.414;2022-09-02T04:16:15;7.50;99.90
20162;DHT22;51382;53.180;15.414;2022-09-02T04:31:23;7.60;99.90
20162;DHT22;51382;53.180;15.414;2022-09-02T04:46:38;7.70;99.90
20162;DHT22;51382;53.180;15.414;2022-09-02T05:01:47;8.20;99.90
20162;DHT22;51382;53.180;15.414;2022-09-02T05:17:01;10.80;99.90
20162;DHT22;51382;53.180;15.414;2022-09-02T05:32:07;13.70;99.90
20162;DHT22;51382;53.180;15.414;2022-09-02T05:47:20;10.20;99.90
20162;DHT22;51382;53.180;15.414;2022-09-02T06:02:32;10.40;99.90
20162;DHT22;51382;53.180;15.414;2022-09-02T06:17:43;12.40;99.90
20162;DHT22;51382;53.180;15.414;2022-09-02T06:32:54;14.10;99.90
20162;DHT22;51382;53.180;15.414;2022-09-02T06:48:02;14.40;99.90
20162;DHT22;51382;53.180;15.414;2022-09-02T07:03:09;20.80;99.90
20162;DHT22;51382;53.180;15.414;2022-09-02T07:18:33;22.60;99.90
20162;DHT22;51382;53.180;15.414;2022-09-02T07:33:44;21.70;99.90
20162;DHT22;51382;53.180;15.414;2022-09-02T07:48:56;23.10;99.90
20162;DHT22;51382;53.180;15.414;2022-09-02T08:04:03;20.80;99.90
20162;DHT22;51382;53.180;15.414;2022-09-02T08:19:15;18.40;99.90
20162;DHT22;51382;53.180;15.414;2022-09-02T08:34:21;17.70;99.90
20162;DHT22;51382;53.180;15.414;2022-09-02T08:49:28;18.00;99.90
20162;DHT22;51382;53.180;15.414;2022-09-02T09:04:52;18.90;99.90
20162;DHT22;51382;53.180;15.414;2022-09-02T09:20:10;19.00;99.90
20162;DHT22;51382;53.180;15.414;2022-09-02T09:35:27;19.70;99.90
20162;DHT22;51382;53.180;15.414;2022-09-02T09:51:10;18.60;99.90
20162;DHT22;51382;53.180;15.414;2022-09-02T10:06:24;23.80;99.90
20162;DHT22;51382;53.180;15.414;2022-09-02T10:21:55;23.10;99.90
20162;DHT22;51382;53.180;15.414;2022-09-02T10:37:16;19.80;99.90
20162;DHT22;51382;53.180;15.414;2022-09-02T10:52:31;18.20;99.90
20162;DHT22;51382;53.180;15.414;2022-09-02T11:07:51;19.50;99.90
20162;DHT22;51382;53.180;15.414;2022-09-02T11:23:15;19.70;99.90
20162;DHT22;51382;53.180;15.414;2022-09-02T11:38:34;20.40;99.90
20162;DHT22;51382;53.180;15.414;2022-09-02T11:53:48;20.10;99.90
20162;DHT22;51382;53.180;15.414;2022-09-02T12:09:02;19.50;99.90
20162;DHT22;51382;53.180;15.414;2022-09-02T12:24:21;20.10;99.90
20162;DHT22;51382;53.180;15.414;2022-09-02T12:39:45;21.30;99.90
20162;DHT22;51382;53.180;15.414;2022-09-02T12:55:03;20.80;99.90
20162;DHT22;51382;53.180;15.414;2022-09-02T13:10:18;21.30;99.90
20162;DHT22;51382;53.180;15.414;2022-09-02T13:25:46;20.80;99.90
20162;DHT22;51382;53.180;15.414;2022-09-02T13:41:05;19.80;99.90
20162;DHT22;51382;53.180;15.414;2022-09-02T13:56:21;19.80;99.90
20162;DHT22;51382;53.180;15.414;2022-09-02T14:11:37;20.30;99.90
20162;DHT22;51382;53.180;15.414;2022-09-02T14:26:44;20.60;99.90
20162;DHT22;51382;53.180;15.414;2022-09-02T14:41:53;20.70;99.90
20162;DHT22;51382;53.180;15.414;2022-09-02T14:57:05;20.20;99.90
20162;DHT22;51382;53.180;15.414;2022-09-02T15:12:29;19.80;99.90
20162;DHT22;51382;53.180;15.414;2022-09-02T15:27:43;20.20;99.90
20162;DHT22;51382;53.180;15.414;2022-09-02T15:42:54;19.00;99.90
20162;DHT22;51382;53.180;15.414;2022-09-02T15:58:07;18.50;99.90
20162;DHT22;51382;53.180;15.414;2022-09-02T16:13:14;18.00;99.90
20162;DHT22;51382;53.180;15.414;2022-09-02T16:28:29;18.00;99.90
20162;DHT22;51382;53.180;15.414;2022-09-02T16:43:39;18.50;99.90
20162;DHT22;51382;53.180;15.414;2022-09-02T16:58:48;19.00;99.90
20162;DHT22;51382;53.180;15.414;2022-09-02T17:14:01;18.30;99.90
20162;DHT22;51382;53.180;15.414;2022-09-02T17:29:14;17.70;99.90
20162;DHT22;51382;53.180;15.414;2022-09-02T17:44:28;17.10;99.90
20162;DHT22;51382;53.180;15.414;2022-09-02T17:59:58;16.60;99.90
20162;DHT22;51382;53.180;15.414;2022-09-02T18:15:12;16.00;99.90
20162;DHT22;51382;53.180;15.414;2022-09-02T18:30:27;15.70;99.90
20162;DHT22;51382;53.180;15.414;2022-09-02T18:45:50;15.30;99.90
20162;DHT22;51382;53.180;15.414;2022-09-02T19:01:06;14.70;99.90
20162;DHT22;51382;53.180;15.414;2022-09-02T19:16:23;14.10;99.90
20162;DHT22;51382;53.180;15.414;2022-09-02T19:31:31;13.90;99.90
20162;DHT22;51382;53.180;15.414;2022-09-02T19:46:42;13.40;99.90
20162;DHT22;51382;53.180;15.414;2022-09-02T20:01:50;12.70;99.90
20162;DHT22;51382;53.180;15.414;2022-09-02T20:32:57;12.40;99.90
20162;DHT22;51382;53.180;15.414;2022-09-02T20:48:17;12.30;99.90
20162;DHT22;51382;53.180;15.414;2022-09-02T21:03:47;12.30;99.90
20162;DHT22;51382;53.180;15.414;2022-09-02T21:19:05;12.00;99.90
20162;DHT22;51382;53.180;15.414;2022-09-02T21:34:23;11.60;99.90
20162;DHT22;51382;53.180;15.414;2022-09-02T21:49:45;11.50;99.90
20162;DHT22;51382;53.180;15.414;2022-09-02T22:05:12;11.30;99.90
20162;DHT22;51382;53.180;15.414;2022-09-02T22:20:34;11.20;99.90
20162;DHT22;51382;53.180;15.414;2022-09-02T22:35:52;11.00;99.90
20162;DHT22;51382;53.180;15.414;2022-09-02T22:51:05;11.00;99.90
20162;DHT22;51382;53.180;15.414;2022-09-02T23:06:39;11.10;99.90
20162;DHT22;51382;53.180;15.414;2022-09-02T23:21:54;10.70;99.90
20162;DHT22;51382;53.180;15.414;2022-09-02T23:37:14;10.40;99.90
20162;DHT22;51382;53.180;15.414;2022-09-02T23:52:30;10.30;99.90
